Overview Statistics Trail Chart Weather Telemetry Raw packets
 

This is the latest recevied weather packets stored in our database for station/object OM5ZU-10. If no packets are shown the sender has not sent any weather packets the latest 10 day(s).

<< 23 24 25 26 27 28 29 >>
Time Temp. Humidity Pressure Rain* Wind** Luminosity Snow
1788025877 20.56° C 64% 1014.9 hPa - - - -
1788024076 23.33° C 54% 1014.7 hPa - - - -
1788023176 23.89° C 52% 1014.8 hPa - - - -
1788022276 24.44° C 50% 1014.7 hPa - - - -
1788021376 25° C 49% 1014.7 hPa - - - -
1788020476 27.22° C 45% 1014.7 hPa - - - -
1788019576 27.22° C 45% 1014.8 hPa - - - -
1788018675 27.22° C 45% 1014.9 hPa - - - -
1788017775 28.33° C 43% 1014.9 hPa - - - -
1788016875 25.56° C 47% 1014.9 hPa - - - -
1788015975 28.89° C 41% 1015.1 hPa - - - -
1788015075 27.78° C 44% 1015 hPa - - - -
1788014175 28.89° C 42% 1015.2 hPa - - - -
1788013274 29.44° C 44% 1015.2 hPa - - - -
1788012374 27.78° C 44% 1015.3 hPa - - - -
1788011474 28.89° C 41% 1015.4 hPa - - - -
1788010574 27.22° C 46% 1015.4 hPa - - - -
1788009674 27.22° C 44% 1015.5 hPa - - - -
1788008773 28.89° C 43% 1015.6 hPa - - - -
1788007873 28.33° C 42% 1015.5 hPa - - - -
1788006973 29.44° C 41% 1015.5 hPa - - - -
1788006073 28.33° C 42% 1015.4 hPa - - - -
1788005173 28.89° C 41% 1015.6 hPa - - - -
1788004273 27.78° C 44% 1015.5 hPa - - - -
1788003373 28.89° C 41% 1016 hPa - - - -

* Rain since midnight (hover to see other rain measurements)
** Current wind speed in m/s (hover to see current wind gust speed)